.
WxDataArchive / Data Records for 2008-06-28
2008-06-27 June 2008 2008-06-29

Data Records for Saturday, 28 June 2008

Time	Temp	Chill	HIndex	Humid	Dewpt	 Wind 	HiWind	WindDir	Rain 	Barom 
-----	----	-----	------	-----	-----	------	------	-------	-----	----- 
00:00	70.6	70.6	70.6	88	66.9	1	3	225	0.00	29.698 
00:05	70.6	70.6	70.6	88	66.9	1	5	225	0.00	29.697 
00:10	70.4	70.4	70.4	88	66.7	1	3	270	0.00	29.694 
00:15	70.3	70.3	70.3	88	66.6	1	4	225	0.00	29.692 
00:20	70.3	70.3	70.3	88	66.6	1	3	248	0.00	29.690 
00:25	70.1	70.1	70.1	88	66.4	1	5	248	0.00	29.687 
00:30	70.1	70.1	70.1	88	66.4	1	3	248	0.00	29.689 
00:35	69.9	69.9	69.9	88	66.2	1	4	248	0.00	29.687 
00:40	69.8	69.8	69.8	88	66.1	1	4	248	0.00	29.683 
00:45	69.8	69.8	69.8	88	66.1	1	3	225	0.00	29.680 
00:50	69.6	69.6	69.6	88	65.9	1	2	248	0.00	29.682 
00:55	69.6	69.6	69.6	88	65.9	1	5	292	0.00	29.679 
01:00	69.4	69.4	69.4	88	65.7	2	6	270	0.00	29.679 
01:05	69.4	69.4	69.4	88	65.7	2	4	248	0.00	29.683 
01:10	69.4	69.4	69.4	87	65.4	2	6	270	0.00	29.680 
01:15	69.4	69.4	69.4	87	65.4	2	10	248	0.00	29.678 
01:20	69.4	69.4	69.4	87	65.4	2	5	270	0.00	29.679 
01:25	69.4	69.4	69.4	88	65.7	2	7	248	0.00	29.677 
01:30	69.3	69.3	69.3	88	65.6	2	6	225	0.00	29.677 
01:35	69.3	69.3	69.3	88	65.6	2	6	248	0.00	29.677 
01:40	69.3	69.3	69.3	88	65.6	2	5	248	0.00	29.675 
01:45	69.3	69.3	69.3	88	65.6	2	4	248	0.00	29.677 
01:50	69.3	69.3	69.3	88	65.6	2	5	248	0.00	29.676 
01:55	69.4	69.4	69.4	88	65.7	1	4	248	0.00	29.675 
02:00	69.3	69.3	69.3	88	65.6	1	4	248	0.00	29.671 
02:05	69.3	69.3	69.3	89	65.9	1	6	248	0.00	29.683 
02:10	69.3	69.3	69.3	89	65.9	1	4	248	0.00	29.686 
02:15	69.3	69.3	69.3	89	65.9	1	4	248	0.00	29.686 
02:20	69.3	69.3	69.3	89	65.9	1	5	270	0.00	29.681 
02:25	69.4	69.4	69.4	89	66.0	1	4	248	0.00	29.678 
02:30	69.4	69.4	69.4	89	66.0	1	5	248	0.00	29.676 
02:35	69.4	69.4	69.4	89	66.0	1	3	248	0.00	29.674 
02:40	69.4	69.4	69.4	89	66.0	1	3	225	0.00	29.677 
02:45	69.4	69.4	69.4	89	66.0	1	3	248	0.00	29.678 
02:50	69.6	69.6	69.6	89	66.2	2	5	248	0.00	29.678 
02:55	69.6	69.6	69.6	89	66.2	2	5	270	0.00	29.678 
03:00	69.8	69.8	69.8	89	66.4	1	3	270	0.00	29.675 
03:05	69.8	69.8	69.8	89	66.4	1	4	248	0.00	29.673 
03:10	69.8	69.8	69.8	89	66.4	0	3	248	0.00	29.672 
03:15	69.8	69.8	69.8	89	66.4	1	3	248	0.00	29.675 
03:20	69.8	69.8	69.8	89	66.4	1	5	248	0.00	29.677 
03:25	69.9	69.9	69.9	89	66.5	1	4	248	0.00	29.670 
03:30	69.9	69.9	69.9	89	66.5	1	4	248	0.00	29.672 
03:35	69.9	69.9	69.9	89	66.5	1	3	270	0.00	29.669 
03:40	69.9	69.9	69.9	89	66.5	1	4	225	0.00	29.669 
03:45	69.9	69.9	69.9	89	66.5	1	5	248	0.00	29.674 
03:50	69.9	69.9	69.9	90	66.8	2	6	248	0.00	29.676 
03:55	70.1	70.1	70.1	90	67.0	2	5	270	0.00	29.669 
04:00	70.3	70.3	70.3	89	66.9	1	3	248	0.00	29.669 
04:05	70.3	70.3	70.3	90	67.2	1	4	225	0.00	29.665 
04:10	70.1	70.1	70.1	90	67.0	2	6	248	0.00	29.665 
04:15	70.1	70.1	70.1	90	67.0	1	4	248	0.00	29.663 
04:20	70.1	70.1	70.1	90	67.0	1	4	270	0.00	29.662 
04:25	70.1	70.1	70.1	90	67.0	1	4	270	0.00	29.664 
04:30	70.1	70.1	70.1	90	67.0	1	4	248	0.00	29.665 
04:35	70.1	70.1	70.1	90	67.0	0	2	248	0.00	29.668 
04:40	70.1	70.1	70.1	90	67.0	1	4	248	0.00	29.669 
04:45	70.3	70.3	70.3	90	67.2	1	4	248	0.00	29.676 
04:50	70.3	70.3	70.3	90	67.2	1	4	248	0.00	29.678 
04:55	70.4	70.4	70.4	90	67.3	1	3	248	0.00	29.675 
05:00	70.4	70.4	70.4	90	67.3	1	4	248	0.00	29.674 
05:05	70.4	70.4	70.4	90	67.3	1	5	292	0.00	29.672 
05:10	70.4	70.4	70.4	90	67.3	2	4	248	0.00	29.678 
05:15	70.4	70.4	70.4	90	67.3	1	3	292	0.00	29.678 
05:20	70.4	70.4	70.4	90	67.3	1	3	225	0.00	29.678 
05:25	70.4	70.4	70.4	90	67.3	0	3	225	0.00	29.678 
05:30	70.4	70.4	70.4	90	67.3	0	2	225	0.00	29.679 
05:35	70.4	70.4	70.4	90	67.3	2	5	270	0.00	29.675 
05:40	70.6	70.6	70.6	89	67.2	1	4	248	0.00	29.671 
05:45	70.6	70.6	70.6	89	67.2	1	3	248	0.00	29.672 
05:50	70.6	70.6	70.6	89	67.2	1	5	248	0.00	29.676 
05:55	70.6	70.6	70.6	90	67.5	1	4	248	0.00	29.675 
06:00	70.6	70.6	70.6	89	67.2	1	7	248	0.00	29.672 
06:05	70.8	70.8	70.8	90	67.7	1	3	248	0.00	29.672 
06:10	70.8	70.8	70.8	89	67.4	1	3	248	0.00	29.670 
06:15	70.9	70.9	70.9	89	67.5	1	5	292	0.00	29.673 
06:20	70.9	70.9	70.9	89	67.5	1	3	248	0.00	29.676 
06:25	71.1	71.1	71.1	89	67.7	1	5	248	0.00	29.676 
06:30	71.3	71.3	71.3	89	67.9	2	4	270	0.00	29.679 
06:35	71.3	71.3	71.3	90	68.2	2	6	248	0.01	29.681 
06:40	70.9	70.9	70.9	90	67.8	1	4	270	0.01	29.695 
06:45	70.8	70.8	70.8	91	68.0	0	2	270	0.05	29.691 
06:50	70.4	70.4	70.4	92	68.0	0	2	270	0.00	29.690 
06:55	70.4	70.4	70.4	92	68.0	0	4	270	0.00	29.684 
07:00	70.3	70.3	70.3	93	68.2	1	4	248	0.00	29.683 
07:05	70.4	70.4	70.4	93	68.3	0	2	270	0.00	29.683 
07:10	70.4	70.4	70.4	93	68.3	1	3	248	0.00	29.682 
07:15	70.6	70.6	70.6	94	68.8	0	3	270	0.00	29.678 
07:20	70.9	70.9	70.9	94	69.1	0	2	248	0.00	29.676 
07:25	70.9	70.9	70.9	94	69.1	1	3	248	0.00	29.678 
07:30	71.1	71.1	71.1	94	69.3	1	5	225	0.00	29.676 
07:35	71.1	71.1	71.1	94	69.3	1	5	270	0.00	29.675 
07:40	71.3	71.3	71.3	93	69.2	1	5	270	0.00	29.674 
07:45	71.3	71.3	71.3	93	69.2	1	4	292	0.00	29.676 
07:50	71.5	71.5	71.5	93	69.4	1	5	248	0.00	29.676 
07:55	71.5	71.5	71.5	93	69.4	1	5	248	0.00	29.676 
08:00	71.6	71.6	71.6	93	69.5	1	3	270	0.00	29.675 
08:05	71.8	71.8	71.8	93	69.7	1	4	270	0.00	29.672 
08:10	72.0	72.0	72.0	93	69.9	1	5	270	0.00	29.674 
08:15	72.1	72.1	72.1	93	70.0	1	4	292	0.00	29.671 
08:20	72.5	72.5	72.5	92	70.0	1	4	292	0.00	29.668 
08:25	72.7	72.7	72.7	92	70.2	1	3	248	0.00	29.671 
08:30	72.8	72.8	72.8	92	70.3	1	4	270	0.00	29.668 
08:35	73.0	73.0	73.0	91	70.2	1	5	248	0.00	29.667 
08:40	73.2	73.2	73.2	90	70.1	2	10	248	0.00	29.669 
08:45	73.5	73.5	73.5	90	70.4	1	3	248	0.00	29.665 
08:50	73.7	73.7	73.7	89	70.2	1	4	270	0.00	29.663 
08:55	74.0	74.0	74.0	88	70.2	1	4	248	0.00	29.666 
09:00	74.4	74.4	74.4	88	70.6	2	5	248	0.00	29.668 
09:05	74.6	74.6	74.6	87	70.5	1	6	248	0.00	29.668 
09:10	74.9	74.9	74.9	86	70.4	1	3	248	0.00	29.665 
09:15	75.1	75.1	75.0	85	70.3	1	3	270	0.00	29.664 
09:20	75.4	75.4	75.5	85	70.6	1	3	248	0.00	29.662 
09:25	75.4	75.4	75.7	84	70.2	1	5	270	0.00	29.660 
09:30	75.6	75.6	76.0	84	70.4	2	4	270	0.00	29.659 
09:35	75.4	75.4	75.8	83	69.9	2	5	248	0.00	29.660 
09:40	75.3	75.3	75.6	83	69.8	3	5	248	0.00	29.661 
09:45	75.1	75.1	75.2	84	69.9	2	6	270	0.00	29.661 
09:50	75.1	75.1	75.2	84	69.9	1	3	270	0.00	29.657 
09:55	74.9	74.9	74.9	84	69.7	1	3	248	0.00	29.658 
10:00	74.7	74.7	74.7	84	69.5	2	7	248	0.00	29.659 
10:05	74.6	74.6	74.6	85	69.8	1	4	248	0.00	29.662 
10:10	74.4	74.4	74.4	87	70.3	1	4	248	0.02	29.662 
10:15	73.9	73.9	73.9	88	70.1	1	3	270	0.01	29.657 
10:20	73.5	73.5	73.5	89	70.0	1	3	270	0.00	29.660 
10:25	73.2	73.2	73.2	90	70.1	1	3	248	0.00	29.665 
10:30	73.0	73.0	73.0	91	70.2	0	2	248	0.00	29.664 
10:35	73.0	73.0	73.0	92	70.5	0	2	225	0.00	29.676 
10:40	73.0	73.0	73.0	92	70.5	0	1	225	0.00	29.677 
10:45	73.0	73.0	73.0	92	70.5	1	3	225	0.00	29.674 
10:50	73.0	73.0	73.0	92	70.5	1	3	225	0.00	29.676 
10:55	73.0	73.0	73.0	92	70.5	1	3	225	0.00	29.679 
11:00	73.0	73.0	73.0	93	70.8	0	2	248	0.00	29.678 
11:05	73.2	73.2	73.2	93	71.0	1	3	248	0.00	29.683 
11:10	73.2	73.2	73.2	93	71.0	1	4	248	0.00	29.687 
11:15	73.2	73.2	73.2	93	71.0	0	3	248	0.00	29.689 
11:20	73.3	73.3	73.3	93	71.1	0	2	248	0.00	29.686 
11:25	73.3	73.3	73.3	93	71.1	1	6	248	0.00	29.681 
11:30	73.5	73.5	73.5	93	71.3	0	3	248	0.00	29.682 
11:35	73.5	73.5	73.5	92	71.0	1	3	248	0.00	29.682 
11:40	73.7	73.7	73.7	91	70.9	1	4	248	0.00	29.682 
11:45	74.7	74.7	74.7	91	71.9	1	4	270	0.00	29.678 
11:50	74.9	74.9	74.9	87	70.8	2	5	248	0.00	29.676 
11:55	74.9	74.9	74.9	87	70.8	1	3	248	0.00	29.675 
12:00	75.1	75.1	74.7	87	71.0	0	2	248	0.00	29.676 
12:05	76.1	76.1	76.4	89	72.6	0	2	248	0.00	29.669 
12:10	76.7	76.7	77.8	85	71.8	1	3	248	0.00	29.663 
12:15	77.2	77.2	78.8	83	71.6	1	4	248	0.00	29.664 
12:20	78.3	78.3	80.9	82	72.3	2	4	248	0.00	29.659 
12:25	79.4	79.4	82.5	75	70.8	1	5	248	0.00	29.653 
12:30	79.6	79.6	82.2	69	68.5	2	4	270	0.00	29.656 
12:35	79.8	79.8	82.1	65	67.0	2	5	270	0.00	29.654 
12:40	79.8	79.8	81.8	62	65.6	3	6	270	0.00	29.662 
12:45	79.2	79.2	81.0	61	64.6	3	6	270	0.00	29.664 
12:50	79.4	79.4	81.6	65	66.6	3	6	270	0.00	29.663 
12:55	79.9	79.9	81.8	61	65.2	2	5	270	0.00	29.666 
13:00	80.1	80.1	81.8	59	64.5	3	6	270	0.00	29.672 
13:05	80.5	80.5	82.1	57	63.8	3	6	270	0.00	29.673 
13:10	80.7	80.7	82.5	59	65.0	3	7	270	0.00	29.676 
13:15	80.7	80.7	82.2	56	63.5	3	6	270	0.00	29.674 
13:20	80.7	80.7	82.0	55	63.0	3	7	270	0.00	29.676 
13:25	80.7	80.7	82.0	55	63.0	3	9	248	0.00	29.669 
13:30	80.7	80.7	81.8	53	62.0	3	6	270	0.00	29.669 
13:35	80.9	80.9	82.3	55	63.2	3	5	270	0.00	29.667 
13:40	81.1	81.1	82.6	56	63.9	2	5	315	0.00	29.667 
13:45	81.2	81.2	82.3	53	62.4	3	7	270	0.00	29.666 
13:50	81.4	81.4	82.8	55	63.7	3	6	248	0.00	29.669 
13:55	81.4	81.4	83.0	56	64.2	3	6	270	0.00	29.670 
14:00	81.6	81.6	83.1	55	63.8	3	7	248	0.00	29.664 
14:05	81.8	81.8	82.8	52	62.4	3	7	270	0.00	29.663 
14:10	81.8	81.8	83.0	53	63.0	3	7	270	0.00	29.664 
14:15	81.6	81.6	82.8	53	62.8	3	6	270	0.00	29.663 
14:20	82.0	82.0	82.8	50	61.5	3	9	248	0.00	29.665 
14:25	82.2	82.2	83.0	50	61.7	3	5	270	0.00	29.662 
14:30	82.4	82.4	82.9	48	60.7	3	6	270	0.00	29.660 
14:35	82.4	82.4	83.2	50	61.9	3	7	248	0.00	29.656 
14:40	82.8	82.8	83.7	50	62.2	2	4	248	0.00	29.653 
14:45	83.0	83.0	83.2	46	60.1	3	7	270	0.00	29.654 
14:50	83.0	83.0	83.9	50	62.4	3	6	248	0.00	29.653 
14:55	83.0	83.0	83.2	46	60.1	3	7	270	0.00	29.652 
15:00	83.0	83.0	83.7	49	61.8	2	7	270	0.00	29.654 
15:05	83.0	83.0	83.2	46	60.1	3	7	270	0.00	29.654 
15:10	83.0	83.0	82.9	44	58.8	4	8	270	0.00	29.650 
15:15	82.8	82.8	83.0	46	59.9	3	7	248	0.00	29.647 
15:20	82.2	82.2	82.4	46	59.3	4	7	270	0.00	29.647 
15:25	81.6	81.6	81.9	47	59.4	4	11	270	0.00	29.647 
15:30	81.1	81.1	81.8	50	60.7	3	9	270	0.00	29.649 
15:35	80.9	80.9	81.6	50	60.5	2	6	270	0.00	29.652 
15:40	80.7	80.7	81.6	51	60.9	1	4	248	0.00	29.648 
15:45	80.5	80.5	81.3	50	60.1	2	4	248	0.00	29.645 
15:50	81.4	81.4	82.1	50	60.9	2	5	270	0.00	29.646 
15:55	82.0	82.0	81.9	44	57.9	4	9	270	0.00	29.645 
16:00	81.6	81.6	81.5	43	56.9	4	7	270	0.00	29.645 
16:05	81.8	81.8	81.8	44	57.7	3	7	270	0.00	29.646 
16:10	82.2	82.2	81.6	40	55.4	4	9	248	0.00	29.646 
16:15	82.2	82.2	82.0	43	57.4	3	5	270	0.00	29.647 
16:20	82.6	82.6	81.7	38	54.4	3	8	270	0.00	29.646 
16:25	82.0	82.0	80.8	34	50.8	5	10	270	0.00	29.650 
16:30	82.0	82.0	81.0	36	52.4	2	6	270	0.00	29.649 
16:35	82.2	82.2	81.4	38	54.0	4	9	270	0.00	29.647 
16:40	81.8	81.8	81.3	40	55.1	3	7	270	0.00	29.648 
16:45	81.4	81.4	81.3	43	56.7	3	7	270	0.00	29.647 
16:50	81.6	81.6	81.3	42	56.3	3	6	270	0.00	29.649 
16:55	81.6	81.6	80.5	34	50.5	4	7	270	0.00	29.651 
17:00	81.4	81.4	80.3	33	49.5	4	7	270	0.00	29.651 
17:05	81.2	81.2	80.3	35	50.9	3	6	248	0.00	29.649 
17:10	80.9	80.9	79.9	32	48.2	4	12	270	0.00	29.656 
17:15	80.7	80.7	79.8	33	48.9	4	10	270	0.00	29.652 
17:20	80.9	80.9	80.1	34	49.9	3	6	248	0.00	29.656 
17:25	80.9	80.9	80.3	37	52.2	3	9	248	0.00	29.655 
17:30	80.5	80.5	79.7	33	48.7	4	10	270	0.00	29.660 
17:35	80.1	80.1	79.5	33	48.4	3	7	270	0.00	29.662 
17:40	80.1	80.1	79.5	34	49.2	3	7	270	0.00	29.665 
17:45	80.1	80.1	79.5	34	49.2	3	9	270	0.00	29.664 
17:50	80.1	80.1	79.7	36	50.7	2	5	270	0.00	29.665 
17:55	79.6	79.6	79.4	37	51.0	2	6	248	0.00	29.663 
18:00	79.6	79.6	79.5	38	51.7	1	3	270	0.00	29.663 
18:05	79.6	79.6	79.6	39	52.4	2	4	270	0.00	29.662 
18:10	79.6	79.6	79.6	39	52.4	2	4	248	0.00	29.663 
18:15	79.2	79.2	79.1	35	49.2	3	9	270	0.00	29.666 
18:20	78.6	78.6	78.9	38	50.8	1	5	248	0.00	29.667 
18:25	78.1	78.1	78.6	37	49.7	2	4	270	0.00	29.673 
18:30	78.3	78.3	78.7	37	49.9	3	6	270	0.00	29.674 
18:35	78.1	78.1	78.7	39	51.1	2	5	270	0.00	29.672 
18:40	78.1	78.1	78.8	41	52.5	1	4	292	0.00	29.674 
18:45	77.9	77.9	78.6	39	50.9	2	6	248	0.00	29.673 
18:50	77.9	77.9	78.7	41	52.3	2	4	248	0.00	29.674 
18:55	77.7	77.7	78.6	41	52.1	1	3	248	0.00	29.674 
19:00	77.6	77.6	78.6	41	52.0	1	4	248	0.00	29.669 
19:05	77.2	77.2	78.4	42	52.3	1	5	248	0.00	29.666 
19:10	76.7	76.7	78.2	42	51.9	1	3	248	0.00	29.666 
19:15	76.5	76.5	78.1	43	52.3	1	2	248	0.00	29.669 
19:20	76.3	76.3	78.1	44	52.8	0	2	248	0.00	29.671 
19:25	76.0	76.0	78.0	45	53.1	0	1	248	0.00	29.670 
19:30	75.8	75.8	77.9	46	53.5	0	1	248	0.00	29.670 
19:35	75.6	75.6	77.8	45	52.7	0	1	248	0.00	29.669 
19:40	75.4	75.4	77.8	46	53.2	0	1	248	0.00	29.672 
19:45	75.3	75.3	77.7	46	53.1	0	1	248	0.00	29.670 
19:50	75.4	75.4	77.8	46	53.2	0	2	248	0.00	29.670 
19:55	75.3	75.3	77.7	48	54.2	0	1	248	0.00	29.670 
20:00	74.9	74.9	74.9	47	53.3	0	1	248	0.00	29.669 
20:05	74.6	74.6	74.6	49	54.2	0	1	248	0.00	29.667 
20:10	74.2	74.2	74.2	49	53.8	0	1	248	0.00	29.667 
20:15	73.9	73.9	73.9	50	54.1	0	1	248	0.00	29.666 
20:20	73.7	73.7	73.7	50	53.9	0	2	248	0.00	29.665 
20:25	73.7	73.7	73.7	51	54.4	0	1	248	0.00	29.666 
20:30	73.5	73.5	73.5	51	54.2	0	1	248	0.00	29.666 
20:35	73.2	73.2	73.2	51	54.0	0	1	248	0.00	29.668 
20:40	73.2	73.2	73.2	53	55.0	0	1	248	0.00	29.669 
20:45	73.2	73.2	73.2	52	54.5	1	3	248	0.00	29.669 
20:50	73.3	73.3	73.3	51	54.1	1	3	248	0.00	29.668 
20:55	73.5	73.5	73.5	51	54.2	1	3	248	0.00	29.670 
21:00	73.5	73.5	73.5	52	54.8	1	4	292	0.00	29.669 
21:05	73.7	73.7	73.7	52	55.0	1	3	248	0.00	29.669 
21:10	73.7	73.7	73.7	51	54.4	1	3	315	0.00	29.674 
21:15	73.5	73.5	73.5	52	54.8	0	2	270	0.00	29.674 
21:20	73.3	73.3	73.3	53	55.1	0	2	270	0.00	29.673 
21:25	73.2	73.2	73.2	52	54.5	1	3	202	0.00	29.676 
21:30	73.3	73.3	73.3	52	54.6	1	3	248	0.00	29.677 
21:35	73.7	73.7	73.7	52	55.0	1	3	248	0.00	29.680 
21:40	73.9	73.9	73.9	51	54.6	1	5	248	0.00	29.681 
21:45	74.0	74.0	74.0	50	54.2	1	3	270	0.00	29.681 
21:50	74.4	74.4	74.4	50	54.5	1	3	270	0.00	29.682 
21:55	74.6	74.6	74.6	49	54.2	1	4	270	0.00	29.682 
22:00	74.6	74.6	74.6	50	54.7	1	5	270	0.00	29.681 
22:05	74.6	74.6	74.6	49	54.2	2	5	248	0.00	29.682 
22:10	74.6	74.6	74.6	49	54.2	1	4	270	0.00	29.683 
22:15	74.4	74.4	74.4	49	54.0	2	5	270	0.00	29.685 
22:20	74.4	74.4	74.4	50	54.5	2	5	270	0.00	29.686 
22:25	74.0	74.0	74.0	50	54.2	1	3	248	0.00	29.690 
22:30	73.7	73.7	73.7	51	54.4	0	4	248	0.00	29.690 
22:35	73.5	73.5	73.5	52	54.8	1	3	248	0.00	29.691 
22:40	73.5	73.5	73.5	52	54.8	1	3	270	0.00	29.688 
22:45	73.3	73.3	73.3	53	55.1	0	2	270	0.00	29.689 
22:50	73.0	73.0	73.0	54	55.4	0	2	270	0.00	29.692 
22:55	73.0	73.0	73.0	54	55.4	0	2	270	0.00	29.694 
23:00	73.0	73.0	73.0	54	55.4	1	3	248	0.00	29.697 
23:05	73.0	73.0	73.0	55	55.9	0	2	248	0.00	29.697 
23:10	73.0	73.0	73.0	55	55.9	0	2	248	0.00	29.698 
23:15	72.8	72.8	72.8	55	55.7	0	2	248	0.00	29.700 
23:20	72.7	72.7	72.7	56	56.1	0	2	248	0.00	29.700 
23:25	72.5	72.5	72.5	57	56.4	0	1	248	0.00	29.701 
23:30	72.3	72.3	72.3	57	56.2	0	2	248	0.00	29.706 
23:35	72.3	72.3	72.3	57	56.2	0	3	248	0.00	29.707 
23:40	72.1	72.1	72.1	58	56.5	0	2	248	0.00	29.707 
23:45	72.0	72.0	72.0	58	56.4	1	3	248	0.00	29.706 
23:50	71.8	71.8	71.8	58	56.2	1	2	248	0.00	29.705 
23:55	71.6	71.6	71.6	58	56.0	1	4	270	0.00	29.704 

CoCoRaHS
IN-AL-39
A2 Web Hosting
Creative Commons License
GoDaddy
Look for:

loaded 2017-12-13 16:01:52 • last modified 2010-11-18 10:43:29
Privacy PolicyDisclaimer
• wx.awcolley.com is powered by PmWiki v.2002016 •
• all content (unless otherwise noted) © 2017 A W Colley